createdAt,value
2023-10-20T00:00:02.974Z,34.9
2023-10-20T00:05:40.463Z,34.9
2023-10-20T00:11:31.894Z,34.8
2023-10-20T00:17:23.283Z,34.8
2023-10-20T00:23:15.341Z,34.8
2023-10-20T00:29:06.956Z,34.8
2023-10-20T00:34:58.948Z,34.7
2023-10-20T00:40:50.742Z,34.7
2023-10-20T00:46:43.080Z,34.6
2023-10-20T00:52:35.559Z,34.6
2023-10-20T00:58:27.841Z,34.6
2023-10-20T01:04:21.054Z,34.6
2023-10-20T01:10:12.951Z,34.5
2023-10-20T01:16:05.375Z,34.5
2023-10-20T01:21:57.265Z,34.5
2023-10-20T01:27:49.099Z,34.4
2023-10-20T01:33:40.938Z,34.4
2023-10-20T01:39:32.477Z,34.4
2023-10-20T01:45:24.667Z,34.4
2023-10-20T01:51:17.750Z,34.3
2023-10-20T01:57:09.696Z,34.3
2023-10-20T02:03:01.638Z,34.3
2023-10-20T02:08:54.173Z,34.2
2023-10-20T02:14:31.422Z,34.1
2023-10-20T02:20:24.234Z,34.1
2023-10-20T02:26:16.219Z,34
2023-10-20T02:32:08.316Z,34
2023-10-20T02:38:00.457Z,33.9
2023-10-20T02:43:51.733Z,33.9
2023-10-20T02:49:44.198Z,33.8
2023-10-20T02:55:36.726Z,33.8
2023-10-20T03:01:28.478Z,33.8
2023-10-20T03:07:22.323Z,33.8
2023-10-20T03:13:13.865Z,33.8
2023-10-20T03:19:05.933Z,33.7
2023-10-20T03:25:00.856Z,33.7
2023-10-20T03:30:53.004Z,33.6
2023-10-20T03:36:45.463Z,33.6
2023-10-20T03:42:37.285Z,33.6
2023-10-20T03:48:29.926Z,33.6
2023-10-20T03:54:21.999Z,33.5
2023-10-20T04:00:13.963Z,33.5
2023-10-20T04:05:51.485Z,33.4
2023-10-20T04:11:43.349Z,33.4
2023-10-20T04:17:20.985Z,33.4
2023-10-20T04:22:59.238Z,33.4
2023-10-20T04:28:35.685Z,33.4
2023-10-20T04:34:12.392Z,33.3
2023-10-20T04:39:49.899Z,33.3
2023-10-20T04:45:26.997Z,33.3
2023-10-20T04:51:05.304Z,33.2
2023-10-20T04:56:10.456Z,33.1
2023-10-20T05:02:03.006Z,33.1
2023-10-20T05:07:42.990Z,33
2023-10-20T05:13:18.762Z,32.9
2023-10-20T05:18:55.490Z,32.9
2023-10-20T05:24:31.552Z,32.9
2023-10-20T05:30:08.369Z,32.8
2023-10-20T05:35:46.749Z,32.8
2023-10-20T05:41:07.663Z,32.8
2023-10-20T05:46:28.840Z,32.8
2023-10-20T05:51:50.163Z,32.7
2023-10-20T05:57:11.425Z,32.7
2023-10-20T06:02:48.342Z,32.6
2023-10-20T06:08:25.646Z,32.6
2023-10-20T06:13:47.274Z,32.6
2023-10-20T06:19:22.208Z,26.4
2023-10-20T06:24:27.869Z,35.6
2023-10-20T06:30:04.399Z,34.4
2023-10-20T06:35:26.140Z,34.2
2023-10-20T06:41:03.347Z,40
2023-10-20T06:46:40.675Z,42.5
2023-10-20T06:52:33.014Z,42.2
2023-10-20T06:59:20.814Z,42.3
2023-10-20T07:05:13.133Z,41.1
2023-10-20T07:11:04.947Z,40.6
2023-10-20T07:17:02.154Z,40.3
2023-10-20T07:22:56.972Z,40.3
2023-10-20T07:28:48.989Z,39.8
2023-10-20T07:34:48.200Z,39.8
2023-10-20T07:40:40.982Z,39.6
2023-10-20T07:46:33.269Z,40.1
2023-10-20T07:52:27.712Z,42.8
2023-10-20T07:58:05.844Z,43.8
2023-10-20T08:04:01.677Z,44.9
2023-10-20T08:09:59.383Z,43.2
2023-10-20T08:15:54.177Z,44.1
2023-10-20T08:21:47.440Z,44.6
2023-10-20T08:27:39.971Z,45.6
2023-10-20T08:33:32.954Z,47
2023-10-20T08:39:25.795Z,48.9
2023-10-20T08:45:25.320Z,50.3
2023-10-20T08:50:50.515Z,50.9
2023-10-20T08:56:47.885Z,51.7
2023-10-20T09:02:58.003Z,52.9
2023-10-20T09:08:52.932Z,54.2
2023-10-20T09:14:49.019Z,55.4
2023-10-20T09:20:42.312Z,56.2
2023-10-20T09:26:21.640Z,57.3
2023-10-20T09:32:05.609Z,58.1
2023-10-20T09:43:47.987Z,58.3
2023-10-20T09:49:44.188Z,57.4
2023-10-20T09:55:39.837Z,56.9
2023-10-20T10:01:35.777Z,56.6
2023-10-20T10:07:30.408Z,56.9
2023-10-20T10:13:23.396Z,55.8
2023-10-20T10:19:18.235Z,54.1
2023-10-20T10:25:21.935Z,53.8
2023-10-20T10:31:18.748Z,55.4
2023-10-20T10:37:31.989Z,58.4
2023-10-20T10:43:25.988Z,59.6
2023-10-20T10:49:23.660Z,60
2023-10-20T10:55:21.463Z,60.4
2023-10-20T11:01:19.649Z,60.6
2023-10-20T11:07:15.652Z,60.9
2023-10-20T11:13:08.260Z,60.8
2023-10-20T11:19:04.846Z,60.6
2023-10-20T11:25:00.666Z,61.1
2023-10-20T11:31:05.506Z,60.8
2023-10-20T11:36:57.684Z,61.2
2023-10-20T11:42:50.210Z,61.1
2023-10-20T11:48:41.348Z,60.4
2023-10-20T11:54:37.649Z,60.4
2023-10-20T12:00:31.829Z,60.3
2023-10-20T12:06:24.703Z,60.2
2023-10-20T12:12:01.381Z,60.3
2023-10-20T12:17:53.343Z,60.1
2023-10-20T12:23:30.765Z,59.6
2023-10-20T12:29:25.577Z,59.4
2023-10-20T12:35:20.061Z,59.4
2023-10-20T12:41:11.358Z,59.1
2023-10-20T12:46:48.952Z,58.9
2023-10-20T12:52:27.205Z,58.3
2023-10-20T12:58:03.013Z,57.9
2023-10-20T13:03:41.522Z,57.6
2023-10-20T13:09:30.442Z,57.1
2023-10-20T13:15:25.122Z,55.9
2023-10-20T13:26:54.357Z,47.4
2023-10-20T13:32:50.830Z,45
2023-10-20T13:38:49.618Z,45
2023-10-20T13:44:53.472Z,45.2
2023-10-20T13:50:45.658Z,45.3
2023-10-20T13:56:38.489Z,45.6
2023-10-20T14:02:30.754Z,45.2
2023-10-20T14:08:10.402Z,44.9
2023-10-20T14:13:47.013Z,44.7
2023-10-20T14:19:23.702Z,44.3
2023-10-20T14:24:59.226Z,43.4
2023-10-20T14:30:35.175Z,42.8
2023-10-20T14:36:12.147Z,41.7
2023-10-20T14:41:51.183Z,41.3
2023-10-20T14:47:27.579Z,40.8
2023-10-20T14:53:04.170Z,40.4
2023-10-20T14:58:56.242Z,39.9
2023-10-20T15:04:51.061Z,39.6
2023-10-20T15:10:44.176Z,39.1
2023-10-20T15:16:37.365Z,38.7
2023-10-20T15:22:32.680Z,38.3
2023-10-20T15:28:37.257Z,37.1
2023-10-20T15:34:30.132Z,36.6
2023-10-20T15:40:51.393Z,36.2
2023-10-20T15:46:43.137Z,36
2023-10-20T15:52:35.590Z,35.7
2023-10-20T15:58:27.054Z,35.3
2023-10-20T16:04:23.572Z,35
2023-10-20T16:09:59.920Z,34.6
2023-10-20T16:15:50.818Z,34.4
2023-10-20T16:21:43.088Z,34.1
2023-10-20T16:27:36.361Z,33.8
2023-10-20T16:33:29.051Z,33.3
2023-10-20T16:39:20.897Z,32.8
2023-10-20T16:44:56.630Z,32.5
2023-10-20T16:50:32.909Z,32.3
2023-10-20T16:56:24.519Z,32.1
2023-10-20T17:02:16.079Z,31.8
2023-10-20T17:07:53.428Z,31.6
2023-10-20T17:13:47.960Z,31.4
2023-10-20T17:19:42.174Z,31.3
2023-10-20T17:25:33.642Z,31.1
2023-10-20T17:31:25.646Z,30.9
2023-10-20T17:37:18.742Z,30.7
2023-10-20T17:43:13.584Z,30.5
2023-10-20T17:49:06.867Z,30.2
2023-10-20T17:54:58.708Z,30
2023-10-20T18:00:55.148Z,29.8
2023-10-20T18:06:54.570Z,29.6
2023-10-20T18:12:47.131Z,29.5
2023-10-20T18:18:42.238Z,29.3
2023-10-20T18:24:35.041Z,29.1
2023-10-20T18:30:31.070Z,28.9
2023-10-20T18:36:24.288Z,28.7
2023-10-20T18:42:02.044Z,28.3
2023-10-20T18:47:56.899Z,28.1
2023-10-20T18:53:50.598Z,27.9
2023-10-20T18:59:43.530Z,27.7
2023-10-20T19:05:22.834Z,27.5
2023-10-20T19:11:19.542Z,27.4
2023-10-20T19:17:12.272Z,27.3
2023-10-20T19:23:07.587Z,27.1
2023-10-20T19:29:03.666Z,26.8
2023-10-20T19:34:57.396Z,26.6
2023-10-20T19:40:50.277Z,26.3
2023-10-20T19:46:44.129Z,26.1
2023-10-20T19:52:37.166Z,25.9
2023-10-20T19:58:29.260Z,25.7
2023-10-20T20:04:25.245Z,25.4
2023-10-20T20:10:17.649Z,25.3
2023-10-20T20:16:13.681Z,25.2
2023-10-20T20:21:50.542Z,25.1
2023-10-20T20:27:27.402Z,25.1
2023-10-20T20:33:20.082Z,25
2023-10-20T20:39:11.364Z,25
2023-10-20T20:45:04.310Z,24.9
2023-10-20T20:50:50.271Z,24.9
2023-10-20T20:56:42.266Z,24.9
2023-10-20T21:02:34.769Z,24.8
2023-10-20T21:08:15.281Z,24.8
2023-10-20T21:13:51.088Z,24.8
2023-10-20T21:19:43.539Z,24.8
2023-10-20T21:25:20.311Z,24.8
2023-10-20T21:30:56.154Z,24.7
2023-10-20T21:36:34.362Z,24.7
2023-10-20T21:42:25.904Z,24.7
2023-10-20T21:48:02.219Z,24.7
2023-10-20T21:53:38.181Z,24.6
2023-10-20T21:59:14.334Z,24.6
2023-10-20T22:05:05.122Z,24.6
2023-10-20T22:11:08.050Z,24.6
2023-10-20T22:16:43.539Z,24.6
2023-10-20T22:22:35.820Z,24.6
2023-10-20T22:28:28.439Z,24.6
2023-10-20T22:34:22.682Z,24.6
2023-10-20T22:39:59.411Z,24.6
2023-10-20T22:45:52.143Z,24.6
2023-10-20T22:51:31.471Z,24.6
2023-10-20T22:57:23.632Z,24.6
2023-10-20T23:02:44.907Z,24.6
2023-10-20T23:08:22.504Z,24.5
2023-10-20T23:13:59.310Z,24.6
2023-10-20T23:19:51.925Z,24.5
2023-10-20T23:24:56.590Z,24.5
2023-10-20T23:30:16.866Z,24.5
2023-10-20T23:35:54.114Z,24.5
2023-10-20T23:41:46.268Z,24.5
2023-10-20T23:47:23.138Z,24.5
2023-10-20T23:53:00.435Z,24.5
2023-10-20T23:58:36.315Z,24.4
